sensor_id;sensor_type;location;lat;lon;timestamp;P1;durP1;ratioP1;P2;durP2;ratioP2
66127;SDS011;52925;52.436;-1.952;2024-03-06T05:22:58;21.08;;;14.45;;
66127;SDS011;52925;52.436;-1.952;2024-03-06T05:24:20;22.83;;;15.23;;
66127;SDS011;52925;52.436;-1.952;2024-03-06T05:25:39;22.05;;;14.93;;
66127;SDS011;52925;52.436;-1.952;2024-03-06T05:27:00;22.07;;;14.03;;
66127;SDS011;52925;52.436;-1.952;2024-03-06T05:28:20;20.53;;;13.93;;
66127;SDS011;52925;52.436;-1.952;2024-03-06T05:29:41;23.85;;;14.70;;
66127;SDS011;52925;52.436;-1.952;2024-03-06T05:31:13;21.55;;;13.82;;
66127;SDS011;52925;52.436;-1.952;2024-03-06T05:32:37;20.75;;;13.90;;
66127;SDS011;52925;52.436;-1.952;2024-03-06T05:33:57;21.23;;;14.48;;
66127;SDS011;52925;52.436;-1.952;2024-03-06T05:35:20;19.15;;;13.45;;
66127;SDS011;52925;52.436;-1.952;2024-03-06T05:36:40;20.80;;;15.15;;
66127;SDS011;52925;52.436;-1.952;2024-03-06T05:38:02;18.52;;;13.73;;
66127;SDS011;52925;52.436;-1.952;2024-03-06T05:39:22;19.10;;;14.40;;
66127;SDS011;52925;52.436;-1.952;2024-03-06T05:40:42;18.63;;;13.77;;
66127;SDS011;52925;52.436;-1.952;2024-03-06T05:42:04;19.90;;;14.10;;
66127;SDS011;52925;52.436;-1.952;2024-03-06T05:43:25;18.60;;;13.50;;
66127;SDS011;52925;52.436;-1.952;2024-03-06T05:44:45;20.70;;;13.57;;
66127;SDS011;52925;52.436;-1.952;2024-03-06T05:46:07;21.15;;;14.27;;
66127;SDS011;52925;52.436;-1.952;2024-03-06T05:47:27;18.85;;;13.68;;
66127;SDS011;52925;52.436;-1.952;2024-03-06T05:48:49;19.42;;;13.43;;
66127;SDS011;52925;52.436;-1.952;2024-03-06T05:50:10;19.70;;;13.52;;
66127;SDS011;52925;52.436;-1.952;2024-03-06T05:51:31;18.42;;;13.80;;
66127;SDS011;52925;52.436;-1.952;2024-03-06T05:52:51;20.17;;;13.40;;
66127;SDS011;52925;52.436;-1.952;2024-03-06T05:54:13;17.85;;;12.57;;
66127;SDS011;52925;52.436;-1.952;2024-03-06T05:55:32;18.80;;;13.43;;
66127;SDS011;52925;52.436;-1.952;2024-03-06T05:56:53;17.60;;;13.07;;
66127;SDS011;52925;52.436;-1.952;2024-03-06T05:58:13;18.98;;;13.93;;
66127;SDS011;52925;52.436;-1.952;2024-03-06T05:59:35;18.15;;;12.32;;
66127;SDS011;52925;52.436;-1.952;2024-03-06T06:00:56;16.83;;;12.82;;
66127;SDS011;52925;52.436;-1.952;2024-03-06T06:02:17;19.63;;;13.25;;
66127;SDS011;52925;52.436;-1.952;2024-03-06T06:03:38;17.73;;;12.65;;
66127;SDS011;52925;52.436;-1.952;2024-03-06T06:04:59;19.45;;;12.90;;
66127;SDS011;52925;52.436;-1.952;2024-03-06T06:06:19;17.85;;;12.18;;
66127;SDS011;52925;52.436;-1.952;2024-03-06T06:07:39;17.27;;;13.05;;
66127;SDS011;52925;52.436;-1.952;2024-03-06T06:08:59;18.02;;;12.68;;
66127;SDS011;52925;52.436;-1.952;2024-03-06T06:10:22;17.05;;;12.30;;
66127;SDS011;52925;52.436;-1.952;2024-03-06T06:11:41;18.30;;;13.15;;
66127;SDS011;52925;52.436;-1.952;2024-03-06T06:13:03;16.08;;;11.68;;
66127;SDS011;52925;52.436;-1.952;2024-03-06T06:14:23;15.98;;;12.23;;
66127;SDS011;52925;52.436;-1.952;2024-03-06T06:15:45;17.27;;;12.85;;
66127;SDS011;52925;52.436;-1.952;2024-03-06T06:17:05;17.35;;;12.70;;
66127;SDS011;52925;52.436;-1.952;2024-03-06T06:18:25;15.93;;;11.73;;
66127;SDS011;52925;52.436;-1.952;2024-03-06T06:19:45;16.45;;;12.02;;
66127;SDS011;52925;52.436;-1.952;2024-03-06T06:21:06;16.80;;;12.52;;
66127;SDS011;52925;52.436;-1.952;2024-03-06T06:22:27;16.02;;;11.95;;
66127;SDS011;52925;52.436;-1.952;2024-03-06T06:23:47;17.02;;;12.85;;
66127;SDS011;52925;52.436;-1.952;2024-03-06T06:25:07;17.83;;;12.82;;
66127;SDS011;52925;52.436;-1.952;2024-03-06T06:26:30;15.43;;;12.35;;
66127;SDS011;52925;52.436;-1.952;2024-03-06T06:27:50;16.38;;;12.05;;
66127;SDS011;52925;52.436;-1.952;2024-03-06T06:29:10;16.90;;;12.82;;
66127;SDS011;52925;52.436;-1.952;2024-03-06T06:30:30;17.10;;;12.40;;
66127;SDS011;52925;52.436;-1.952;2024-03-06T06:31:51;16.17;;;12.32;;
66127;SDS011;52925;52.436;-1.952;2024-03-06T06:33:11;15.02;;;12.05;;
66127;SDS011;52925;52.436;-1.952;2024-03-06T06:34:32;15.50;;;12.25;;
66127;SDS011;52925;52.436;-1.952;2024-03-06T06:35:53;17.13;;;12.50;;
66127;SDS011;52925;52.436;-1.952;2024-03-06T06:37:13;16.80;;;12.52;;
66127;SDS011;52925;52.436;-1.952;2024-03-06T06:38:34;16.80;;;12.73;;
66127;SDS011;52925;52.436;-1.952;2024-03-06T06:39:54;15.37;;;11.60;;
66127;SDS011;52925;52.436;-1.952;2024-03-06T06:41:14;15.13;;;12.05;;
66127;SDS011;52925;52.436;-1.952;2024-03-06T06:42:37;17.20;;;12.13;;
66127;SDS011;52925;52.436;-1.952;2024-03-06T06:43:57;16.23;;;12.18;;
66127;SDS011;52925;52.436;-1.952;2024-03-06T06:45:18;17.08;;;12.20;;
66127;SDS011;52925;52.436;-1.952;2024-03-06T06:46:39;15.95;;;11.32;;
66127;SDS011;52925;52.436;-1.952;2024-03-06T06:48:01;15.18;;;11.80;;
66127;SDS011;52925;52.436;-1.952;2024-03-06T06:49:21;15.68;;;11.88;;
66127;SDS011;52925;52.436;-1.952;2024-03-06T06:50:42;15.07;;;11.77;;
66127;SDS011;52925;52.436;-1.952;2024-03-06T06:52:02;15.75;;;12.18;;
66127;SDS011;52925;52.436;-1.952;2024-03-06T06:53:23;15.85;;;11.60;;
66127;SDS011;52925;52.436;-1.952;2024-03-06T06:54:43;15.95;;;12.57;;
66127;SDS011;52925;52.436;-1.952;2024-03-06T06:56:04;15.90;;;11.18;;
66127;SDS011;52925;52.436;-1.952;2024-03-06T06:57:24;16.87;;;12.43;;
66127;SDS011;52925;52.436;-1.952;2024-03-06T06:58:46;15.50;;;11.35;;
66127;SDS011;52925;52.436;-1.952;2024-03-06T07:00:07;16.08;;;11.77;;
66127;SDS011;52925;52.436;-1.952;2024-03-06T07:01:30;15.40;;;11.00;;
66127;SDS011;52925;52.436;-1.952;2024-03-06T07:02:51;15.05;;;11.20;;
66127;SDS011;52925;52.436;-1.952;2024-03-06T07:04:12;15.95;;;11.18;;
66127;SDS011;52925;52.436;-1.952;2024-03-06T07:05:35;13.70;;;11.32;;
66127;SDS011;52925;52.436;-1.952;2024-03-06T07:06:55;14.48;;;11.23;;
66127;SDS011;52925;52.436;-1.952;2024-03-06T07:08:15;14.38;;;10.75;;
66127;SDS011;52925;52.436;-1.952;2024-03-06T07:09:36;15.48;;;11.52;;
66127;SDS011;52925;52.436;-1.952;2024-03-06T07:10:56;15.55;;;11.48;;
66127;SDS011;52925;52.436;-1.952;2024-03-06T07:12:17;15.25;;;10.93;;
66127;SDS011;52925;52.436;-1.952;2024-03-06T07:13:37;14.48;;;10.77;;
66127;SDS011;52925;52.436;-1.952;2024-03-06T07:14:59;14.85;;;11.02;;
66127;SDS011;52925;52.436;-1.952;2024-03-06T07:16:19;14.52;;;10.38;;
66127;SDS011;52925;52.436;-1.952;2024-03-06T16:39:34;14.20;;;9.70;;
66127;SDS011;52925;52.436;-1.952;2024-03-06T16:40:58;14.23;;;9.60;;
66127;SDS011;52925;52.436;-1.952;2024-03-06T16:42:19;14.60;;;9.33;;
66127;SDS011;52925;52.436;-1.952;2024-03-06T16:43:39;15.50;;;9.27;;
66127;SDS011;52925;52.436;-1.952;2024-03-06T16:45:00;15.10;;;9.30;;
66127;SDS011;52925;52.436;-1.952;2024-03-06T16:46:20;15.97;;;10.37;;
66127;SDS011;52925;52.436;-1.952;2024-03-06T16:47:44;14.37;;;9.37;;
66127;SDS011;52925;52.436;-1.952;2024-03-06T16:49:04;16.97;;;9.27;;
66127;SDS011;52925;52.436;-1.952;2024-03-06T16:50:26;15.83;;;9.93;;
66127;SDS011;52925;52.436;-1.952;2024-03-06T16:51:47;14.97;;;10.13;;
66127;SDS011;52925;52.436;-1.952;2024-03-06T16:53:07;14.67;;;9.50;;
66127;SDS011;52925;52.436;-1.952;2024-03-06T16:54:28;13.87;;;8.93;;
66127;SDS011;52925;52.436;-1.952;2024-03-06T16:55:48;14.77;;;9.93;;
66127;SDS011;52925;52.436;-1.952;2024-03-06T16:57:11;16.57;;;9.40;;
66127;SDS011;52925;52.436;-1.952;2024-03-06T16:58:30;14.13;;;9.47;;
66127;SDS011;52925;52.436;-1.952;2024-03-06T16:59:51;14.53;;;9.73;;
66127;SDS011;52925;52.436;-1.952;2024-03-06T17:01:11;15.40;;;9.00;;
66127;SDS011;52925;52.436;-1.952;2024-03-06T17:02:32;12.27;;;8.70;;
66127;SDS011;52925;52.436;-1.952;2024-03-06T17:03:52;13.80;;;8.73;;
66127;SDS011;52925;52.436;-1.952;2024-03-06T17:05:13;14.10;;;9.33;;
66127;SDS011;52925;52.436;-1.952;2024-03-06T17:06:33;14.40;;;8.90;;
66127;SDS011;52925;52.436;-1.952;2024-03-06T17:07:54;14.47;;;8.50;;
66127;SDS011;52925;52.436;-1.952;2024-03-06T17:09:13;13.07;;;8.77;;
66127;SDS011;52925;52.436;-1.952;2024-03-06T17:10:34;12.80;;;8.10;;
66127;SDS011;52925;52.436;-1.952;2024-03-06T17:11:54;14.07;;;8.33;;
66127;SDS011;52925;52.436;-1.952;2024-03-06T17:13:17;11.17;;;8.10;;
66127;SDS011;52925;52.436;-1.952;2024-03-06T17:14:36;12.10;;;8.07;;
66127;SDS011;52925;52.436;-1.952;2024-03-06T17:15:57;12.40;;;8.07;;
66127;SDS011;52925;52.436;-1.952;2024-03-06T17:17:17;13.17;;;8.23;;
66127;SDS011;52925;52.436;-1.952;2024-03-06T17:18:39;11.73;;;8.23;;
66127;SDS011;52925;52.436;-1.952;2024-03-06T17:19:59;12.30;;;8.07;;
66127;SDS011;52925;52.436;-1.952;2024-03-06T17:21:20;9.70;;;7.00;;
66127;SDS011;52925;52.436;-1.952;2024-03-06T17:22:40;12.23;;;7.87;;
66127;SDS011;52925;52.436;-1.952;2024-03-06T17:24:02;12.55;;;7.80;;
66127;SDS011;52925;52.436;-1.952;2024-03-06T17:25:23;10.90;;;7.60;;
66127;SDS011;52925;52.436;-1.952;2024-03-06T17:26:44;12.17;;;8.30;;
66127;SDS011;52925;52.436;-1.952;2024-03-06T17:28:04;11.43;;;7.87;;
66127;SDS011;52925;52.436;-1.952;2024-03-06T17:29:28;12.37;;;8.10;;
66127;SDS011;52925;52.436;-1.952;2024-03-06T17:30:49;13.77;;;8.60;;
66127;SDS011;52925;52.436;-1.952;2024-03-06T17:32:08;13.87;;;8.43;;
66127;SDS011;52925;52.436;-1.952;2024-03-06T17:33:29;12.43;;;8.43;;
66127;SDS011;52925;52.436;-1.952;2024-03-06T17:34:49;13.03;;;8.77;;
66127;SDS011;52925;52.436;-1.952;2024-03-06T17:36:10;13.70;;;8.40;;
66127;SDS011;52925;52.436;-1.952;2024-03-06T17:37:30;13.83;;;9.00;;
66127;SDS011;52925;52.436;-1.952;2024-03-06T17:38:50;13.07;;;8.57;;
66127;SDS011;52925;52.436;-1.952;2024-03-06T17:40:10;12.23;;;8.05;;
66127;SDS011;52925;52.436;-1.952;2024-03-06T17:41:32;13.13;;;9.07;;
66127;SDS011;52925;52.436;-1.952;2024-03-06T17:42:53;12.17;;;8.40;;
66127;SDS011;52925;52.436;-1.952;2024-03-06T17:44:14;15.33;;;9.20;;
66127;SDS011;52925;52.436;-1.952;2024-03-06T17:45:35;13.83;;;9.20;;
66127;SDS011;52925;52.436;-1.952;2024-03-06T17:46:56;15.57;;;9.27;;
66127;SDS011;52925;52.436;-1.952;2024-03-06T17:48:16;16.00;;;8.97;;
66127;SDS011;52925;52.436;-1.952;2024-03-06T17:49:38;13.90;;;8.98;;
66127;SDS011;52925;52.436;-1.952;2024-03-06T17:50:58;12.52;;;8.35;;
66127;SDS011;52925;52.436;-1.952;2024-03-06T17:52:19;13.23;;;8.93;;
66127;SDS011;52925;52.436;-1.952;2024-03-06T17:53:39;14.30;;;9.43;;
66127;SDS011;52925;52.436;-1.952;2024-03-06T17:54:59;15.00;;;9.33;;
66127;SDS011;52925;52.436;-1.952;2024-03-06T17:56:19;14.57;;;9.30;;
66127;SDS011;52925;52.436;-1.952;2024-03-06T17:57:40;14.13;;;8.93;;
66127;SDS011;52925;52.436;-1.952;2024-03-06T17:59:04;13.30;;;8.60;;
66127;SDS011;52925;52.436;-1.952;2024-03-06T18:00:25;15.33;;;9.07;;
66127;SDS011;52925;52.436;-1.952;2024-03-06T18:01:46;12.27;;;8.70;;
66127;SDS011;52925;52.436;-1.952;2024-03-06T18:03:07;11.97;;;8.07;;
66127;SDS011;52925;52.436;-1.952;2024-03-06T18:04:29;13.80;;;9.23;;
66127;SDS011;52925;52.436;-1.952;2024-03-06T18:05:50;13.40;;;8.87;;
66127;SDS011;52925;52.436;-1.952;2024-03-06T18:07:10;14.03;;;9.27;;
66127;SDS011;52925;52.436;-1.952;2024-03-06T18:08:31;16.63;;;9.80;;
66127;SDS011;52925;52.436;-1.952;2024-03-06T18:09:51;14.60;;;9.57;;
66127;SDS011;52925;52.436;-1.952;2024-03-06T18:11:13;13.90;;;8.80;;
66127;SDS011;52925;52.436;-1.952;2024-03-06T18:12:33;15.13;;;9.10;;
66127;SDS011;52925;52.436;-1.952;2024-03-06T18:13:54;14.90;;;9.63;;
66127;SDS011;52925;52.436;-1.952;2024-03-06T18:15:14;12.43;;;9.00;;
66127;SDS011;52925;52.436;-1.952;2024-03-06T18:16:35;12.70;;;8.93;;
66127;SDS011;52925;52.436;-1.952;2024-03-06T18:17:57;15.93;;;8.93;;
66127;SDS011;52925;52.436;-1.952;2024-03-06T18:19:18;14.13;;;9.43;;
66127;SDS011;52925;52.436;-1.952;2024-03-06T18:20:38;16.87;;;10.00;;
66127;SDS011;52925;52.436;-1.952;2024-03-06T18:21:58;14.37;;;9.17;;
66127;SDS011;52925;52.436;-1.952;2024-03-06T18:23:18;13.07;;;8.90;;
66127;SDS011;52925;52.436;-1.952;2024-03-06T18:24:39;15.57;;;9.43;;
66127;SDS011;52925;52.436;-1.952;2024-03-06T18:25:59;15.85;;;9.30;;
66127;SDS011;52925;52.436;-1.952;2024-03-06T18:27:19;14.77;;;8.93;;
66127;SDS011;52925;52.436;-1.952;2024-03-06T18:28:39;14.47;;;8.90;;
66127;SDS011;52925;52.436;-1.952;2024-03-06T18:30:01;13.50;;;9.00;;
66127;SDS011;52925;52.436;-1.952;2024-03-06T18:31:22;14.60;;;9.30;;
66127;SDS011;52925;52.436;-1.952;2024-03-06T18:32:42;12.55;;;8.60;;
66127;SDS011;52925;52.436;-1.952;2024-03-06T18:34:04;13.97;;;9.13;;
66127;SDS011;52925;52.436;-1.952;2024-03-06T18:35:24;15.40;;;9.37;;
66127;SDS011;52925;52.436;-1.952;2024-03-06T18:36:44;14.20;;;9.57;;
66127;SDS011;52925;52.436;-1.952;2024-03-06T18:38:05;16.73;;;9.57;;
66127;SDS011;52925;52.436;-1.952;2024-03-06T18:39:25;15.00;;;9.03;;
66127;SDS011;52925;52.436;-1.952;2024-03-06T18:40:46;14.50;;;8.93;;
66127;SDS011;52925;52.436;-1.952;2024-03-06T18:42:05;13.13;;;8.80;;
66127;SDS011;52925;52.436;-1.952;2024-03-06T18:43:26;13.17;;;9.40;;
66127;SDS011;52925;52.436;-1.952;2024-03-06T18:44:47;14.70;;;9.83;;
66127;SDS011;52925;52.436;-1.952;2024-03-06T18:46:07;13.38;;;9.40;;
66127;SDS011;52925;52.436;-1.952;2024-03-06T18:47:28;14.52;;;9.70;;
66127;SDS011;52925;52.436;-1.952;2024-03-06T18:48:48;13.67;;;9.43;;
66127;SDS011;52925;52.436;-1.952;2024-03-06T18:50:10;16.77;;;9.68;;
66127;SDS011;52925;52.436;-1.952;2024-03-06T18:51:30;15.53;;;9.53;;
66127;SDS011;52925;52.436;-1.952;2024-03-06T18:52:50;17.23;;;10.63;;
66127;SDS011;52925;52.436;-1.952;2024-03-06T18:54:13;14.60;;;9.47;;
66127;SDS011;52925;52.436;-1.952;2024-03-06T18:55:33;13.93;;;9.17;;
66127;SDS011;52925;52.436;-1.952;2024-03-06T18:56:55;15.53;;;9.63;;
66127;SDS011;52925;52.436;-1.952;2024-03-06T18:58:15;15.33;;;9.17;;
66127;SDS011;52925;52.436;-1.952;2024-03-06T18:59:36;14.57;;;10.20;;
66127;SDS011;52925;52.436;-1.952;2024-03-06T19:00:56;15.80;;;9.90;;
66127;SDS011;52925;52.436;-1.952;2024-03-06T19:02:17;13.13;;;9.57;;
66127;SDS011;52925;52.436;-1.952;2024-03-06T19:03:38;13.43;;;9.50;;
66127;SDS011;52925;52.436;-1.952;2024-03-06T19:04:58;14.37;;;9.33;;
66127;SDS011;52925;52.436;-1.952;2024-03-06T19:06:20;15.48;;;9.80;;
66127;SDS011;52925;52.436;-1.952;2024-03-06T19:07:41;12.93;;;9.77;;
66127;SDS011;52925;52.436;-1.952;2024-03-06T19:09:02;17.53;;;10.60;;
66127;SDS011;52925;52.436;-1.952;2024-03-06T19:10:24;15.83;;;10.37;;
66127;SDS011;52925;52.436;-1.952;2024-03-06T19:11:44;15.77;;;10.57;;
66127;SDS011;52925;52.436;-1.952;2024-03-06T19:13:06;15.00;;;10.13;;
66127;SDS011;52925;52.436;-1.952;2024-03-06T19:14:27;14.33;;;9.57;;
66127;SDS011;52925;52.436;-1.952;2024-03-06T19:15:47;16.83;;;10.07;;
66127;SDS011;52925;52.436;-1.952;2024-03-06T19:17:08;15.43;;;9.87;;
66127;SDS011;52925;52.436;-1.952;2024-03-06T19:18:28;15.67;;;10.27;;
66127;SDS011;52925;52.436;-1.952;2024-03-06T19:19:48;16.08;;;10.63;;
66127;SDS011;52925;52.436;-1.952;2024-03-06T19:21:10;16.97;;;10.53;;
66127;SDS011;52925;52.436;-1.952;2024-03-06T19:22:33;17.17;;;10.50;;
66127;SDS011;52925;52.436;-1.952;2024-03-06T19:23:53;15.00;;;9.93;;
66127;SDS011;52925;52.436;-1.952;2024-03-06T19:25:14;18.27;;;10.93;;
66127;SDS011;52925;52.436;-1.952;2024-03-06T19:26:33;15.23;;;10.17;;
66127;SDS011;52925;52.436;-1.952;2024-03-06T19:27:54;15.37;;;10.20;;
66127;SDS011;52925;52.436;-1.952;2024-03-06T19:29:14;15.88;;;10.68;;
66127;SDS011;52925;52.436;-1.952;2024-03-06T19:30:35;15.70;;;10.67;;
66127;SDS011;52925;52.436;-1.952;2024-03-06T19:31:55;21.00;;;12.05;;
66127;SDS011;52925;52.436;-1.952;2024-03-06T19:33:16;17.17;;;11.37;;
66127;SDS011;52925;52.436;-1.952;2024-03-06T19:34:36;16.50;;;10.67;;
66127;SDS011;52925;52.436;-1.952;2024-03-06T19:35:57;15.17;;;10.93;;
66127;SDS011;52925;52.436;-1.952;2024-03-06T19:37:17;15.97;;;11.03;;
66127;SDS011;52925;52.436;-1.952;2024-03-06T19:38:39;17.27;;;11.47;;
66127;SDS011;52925;52.436;-1.952;2024-03-06T19:39:59;19.00;;;11.87;;
66127;SDS011;52925;52.436;-1.952;2024-03-06T19:41:20;16.50;;;11.57;;
66127;SDS011;52925;52.436;-1.952;2024-03-06T19:42:40;17.80;;;11.90;;
66127;SDS011;52925;52.436;-1.952;2024-03-06T19:44:01;17.63;;;11.47;;
66127;SDS011;52925;52.436;-1.952;2024-03-06T19:45:22;17.70;;;11.63;;
66127;SDS011;52925;52.436;-1.952;2024-03-06T19:46:43;17.40;;;12.03;;
66127;SDS011;52925;52.436;-1.952;2024-03-06T19:48:03;18.87;;;11.93;;
66127;SDS011;52925;52.436;-1.952;2024-03-06T19:49:25;20.13;;;12.90;;
66127;SDS011;52925;52.436;-1.952;2024-03-06T19:50:45;17.80;;;12.23;;
66127;SDS011;52925;52.436;-1.952;2024-03-06T19:52:06;17.77;;;12.17;;
66127;SDS011;52925;52.436;-1.952;2024-03-06T19:53:26;18.77;;;12.77;;
66127;SDS011;52925;52.436;-1.952;2024-03-06T19:54:48;18.93;;;12.37;;
66127;SDS011;52925;52.436;-1.952;2024-03-06T19:56:11;18.60;;;13.50;;
66127;SDS011;52925;52.436;-1.952;2024-03-06T19:57:32;17.53;;;12.70;;
66127;SDS011;52925;52.436;-1.952;2024-03-06T19:58:53;17.50;;;12.50;;
66127;SDS011;52925;52.436;-1.952;2024-03-06T20:00:14;20.27;;;13.40;;
66127;SDS011;52925;52.436;-1.952;2024-03-06T20:01:35;17.97;;;12.60;;
66127;SDS011;52925;52.436;-1.952;2024-03-06T20:02:56;20.00;;;13.70;;
66127;SDS011;52925;52.436;-1.952;2024-03-06T20:04:16;20.17;;;13.23;;
66127;SDS011;52925;52.436;-1.952;2024-03-06T20:05:36;19.37;;;13.87;;
66127;SDS011;52925;52.436;-1.952;2024-03-06T20:06:56;21.00;;;14.80;;
66127;SDS011;52925;52.436;-1.952;2024-03-06T20:08:17;21.85;;;14.40;;
66127;SDS011;52925;52.436;-1.952;2024-03-06T20:09:37;20.93;;;13.37;;
66127;SDS011;52925;52.436;-1.952;2024-03-06T20:11:00;20.47;;;13.90;;
66127;SDS011;52925;52.436;-1.952;2024-03-06T20:12:22;21.00;;;14.43;;
66127;SDS011;52925;52.436;-1.952;2024-03-06T20:13:43;19.80;;;14.57;;
66127;SDS011;52925;52.436;-1.952;2024-03-06T20:15:04;21.33;;;14.87;;
66127;SDS011;52925;52.436;-1.952;2024-03-06T20:16:25;21.73;;;14.60;;
66127;SDS011;52925;52.436;-1.952;2024-03-06T20:17:46;22.57;;;15.60;;
66127;SDS011;52925;52.436;-1.952;2024-03-06T20:19:06;20.37;;;15.07;;
66127;SDS011;52925;52.436;-1.952;2024-03-06T20:20:27;22.17;;;14.90;;
66127;SDS011;52925;52.436;-1.952;2024-03-06T20:21:47;20.60;;;14.90;;
66127;SDS011;52925;52.436;-1.952;2024-03-06T20:23:08;20.60;;;14.50;;
66127;SDS011;52925;52.436;-1.952;2024-03-06T20:24:28;20.90;;;14.63;;
66127;SDS011;52925;52.436;-1.952;2024-03-06T20:25:49;22.03;;;14.93;;
66127;SDS011;52925;52.436;-1.952;2024-03-06T20:27:11;22.00;;;15.80;;
66127;SDS011;52925;52.436;-1.952;2024-03-06T20:28:32;22.30;;;15.97;;
66127;SDS011;52925;52.436;-1.952;2024-03-06T20:29:52;24.60;;;16.70;;
66127;SDS011;52925;52.436;-1.952;2024-03-06T20:31:12;23.47;;;15.73;;
66127;SDS011;52925;52.436;-1.952;2024-03-06T20:32:33;21.10;;;15.43;;
66127;SDS011;52925;52.436;-1.952;2024-03-06T20:33:54;22.30;;;16.13;;
66127;SDS011;52925;52.436;-1.952;2024-03-06T20:35:14;24.60;;;16.43;;
66127;SDS011;52925;52.436;-1.952;2024-03-06T20:36:39;22.93;;;15.80;;
66127;SDS011;52925;52.436;-1.952;2024-03-06T20:37:59;25.53;;;16.63;;
66127;SDS011;52925;52.436;-1.952;2024-03-06T20:39:20;25.30;;;16.77;;
66127;SDS011;52925;52.436;-1.952;2024-03-06T20:40:41;22.87;;;16.10;;
66127;SDS011;52925;52.436;-1.952;2024-03-06T20:42:03;26.33;;;17.37;;
66127;SDS011;52925;52.436;-1.952;2024-03-06T20:43:27;22.10;;;16.50;;
66127;SDS011;52925;52.436;-1.952;2024-03-06T20:44:48;23.73;;;16.90;;
66127;SDS011;52925;52.436;-1.952;2024-03-06T20:46:08;23.57;;;16.53;;
66127;SDS011;52925;52.436;-1.952;2024-03-06T20:47:29;25.70;;;17.23;;
66127;SDS011;52925;52.436;-1.952;2024-03-06T20:48:49;22.77;;;16.17;;
66127;SDS011;52925;52.436;-1.952;2024-03-06T20:50:09;23.90;;;17.07;;
66127;SDS011;52925;52.436;-1.952;2024-03-06T20:51:30;24.63;;;17.03;;
66127;SDS011;52925;52.436;-1.952;2024-03-06T20:52:51;26.10;;;17.03;;
66127;SDS011;52925;52.436;-1.952;2024-03-06T20:54:10;25.20;;;17.67;;
66127;SDS011;52925;52.436;-1.952;2024-03-06T20:55:32;24.67;;;17.50;;
66127;SDS011;52925;52.436;-1.952;2024-03-06T20:56:51;24.13;;;17.20;;
66127;SDS011;52925;52.436;-1.952;2024-03-06T20:58:13;24.23;;;17.77;;
66127;SDS011;52925;52.436;-1.952;2024-03-06T20:59:34;24.80;;;17.00;;
66127;SDS011;52925;52.436;-1.952;2024-03-06T21:00:55;24.10;;;16.97;;
66127;SDS011;52925;52.436;-1.952;2024-03-06T21:02:15;25.47;;;17.63;;
66127;SDS011;52925;52.436;-1.952;2024-03-06T21:03:36;25.77;;;18.20;;
66127;SDS011;52925;52.436;-1.952;2024-03-06T21:04:57;25.93;;;17.33;;
66127;SDS011;52925;52.436;-1.952;2024-03-06T21:06:18;26.90;;;18.83;;
66127;SDS011;52925;52.436;-1.952;2024-03-06T21:07:38;26.20;;;18.03;;
66127;SDS011;52925;52.436;-1.952;2024-03-06T21:08:59;23.83;;;17.37;;
66127;SDS011;52925;52.436;-1.952;2024-03-06T21:10:19;24.77;;;17.80;;
66127;SDS011;52925;52.436;-1.952;2024-03-06T21:11:41;27.30;;;18.20;;
66127;SDS011;52925;52.436;-1.952;2024-03-06T21:13:00;28.13;;;19.17;;
66127;SDS011;52925;52.436;-1.952;2024-03-06T21:14:21;27.10;;;18.53;;
66127;SDS011;52925;52.436;-1.952;2024-03-06T21:15:43;26.50;;;18.00;;
66127;SDS011;52925;52.436;-1.952;2024-03-06T21:17:05;25.63;;;18.53;;
66127;SDS011;52925;52.436;-1.952;2024-03-06T21:18:25;26.13;;;18.53;;
66127;SDS011;52925;52.436;-1.952;2024-03-06T21:19:46;24.73;;;18.10;;
66127;SDS011;52925;52.436;-1.952;2024-03-06T21:21:06;26.33;;;18.87;;
66127;SDS011;52925;52.436;-1.952;2024-03-06T21:22:27;26.50;;;17.83;;
66127;SDS011;52925;52.436;-1.952;2024-03-06T21:23:47;29.73;;;19.47;;
66127;SDS011;52925;52.436;-1.952;2024-03-06T21:25:08;27.60;;;19.53;;
66127;SDS011;52925;52.436;-1.952;2024-03-06T21:26:28;24.90;;;18.27;;
66127;SDS011;52925;52.436;-1.952;2024-03-06T21:27:49;29.57;;;19.80;;
66127;SDS011;52925;52.436;-1.952;2024-03-06T21:29:09;29.43;;;20.33;;
66127;SDS011;52925;52.436;-1.952;2024-03-06T21:30:30;29.77;;;19.93;;
66127;SDS011;52925;52.436;-1.952;2024-03-06T21:31:51;26.33;;;19.13;;
66127;SDS011;52925;52.436;-1.952;2024-03-06T21:33:12;28.37;;;20.37;;
66127;SDS011;52925;52.436;-1.952;2024-03-06T21:34:33;26.60;;;19.03;;
66127;SDS011;52925;52.436;-1.952;2024-03-06T21:35:55;27.40;;;20.10;;
66127;SDS011;52925;52.436;-1.952;2024-03-06T21:37:15;27.53;;;20.17;;
66127;SDS011;52925;52.436;-1.952;2024-03-06T21:38:36;28.50;;;19.37;;
66127;SDS011;52925;52.436;-1.952;2024-03-06T21:39:55;28.42;;;19.60;;
66127;SDS011;52925;52.436;-1.952;2024-03-06T21:41:17;26.52;;;18.98;;
66127;SDS011;52925;52.436;-1.952;2024-03-06T21:42:37;29.47;;;20.43;;
66127;SDS011;52925;52.436;-1.952;2024-03-06T21:43:58;27.93;;;20.37;;
66127;SDS011;52925;52.436;-1.952;2024-03-06T21:45:18;28.33;;;19.87;;
66127;SDS011;52925;52.436;-1.952;2024-03-06T21:46:39;29.97;;;20.20;;
66127;SDS011;52925;52.436;-1.952;2024-03-06T21:48:01;30.57;;;20.63;;
66127;SDS011;52925;52.436;-1.952;2024-03-06T21:49:22;29.63;;;19.97;;
66127;SDS011;52925;52.436;-1.952;2024-03-06T21:50:43;28.33;;;19.90;;
66127;SDS011;52925;52.436;-1.952;2024-03-06T21:52:03;27.50;;;19.67;;
66127;SDS011;52925;52.436;-1.952;2024-03-06T21:53:24;30.13;;;20.97;;
66127;SDS011;52925;52.436;-1.952;2024-03-06T21:54:44;29.67;;;20.47;;
66127;SDS011;52925;52.436;-1.952;2024-03-06T21:56:07;31.13;;;21.63;;
66127;SDS011;52925;52.436;-1.952;2024-03-06T21:57:29;29.23;;;20.60;;
66127;SDS011;52925;52.436;-1.952;2024-03-06T21:58:49;30.07;;;21.00;;
66127;SDS011;52925;52.436;-1.952;2024-03-06T22:00:10;31.97;;;21.13;;
66127;SDS011;52925;52.436;-1.952;2024-03-06T22:01:33;29.10;;;20.03;;
66127;SDS011;52925;52.436;-1.952;2024-03-06T22:02:54;30.30;;;21.80;;
66127;SDS011;52925;52.436;-1.952;2024-03-06T22:04:15;31.00;;;21.07;;
66127;SDS011;52925;52.436;-1.952;2024-03-06T22:05:36;30.00;;;20.20;;
66127;SDS011;52925;52.436;-1.952;2024-03-06T22:06:56;30.17;;;21.90;;
66127;SDS011;52925;52.436;-1.952;2024-03-06T22:08:18;29.43;;;21.20;;
66127;SDS011;52925;52.436;-1.952;2024-03-06T22:09:38;29.03;;;20.73;;
66127;SDS011;52925;52.436;-1.952;2024-03-06T22:10:59;29.43;;;21.03;;
66127;SDS011;52925;52.436;-1.952;2024-03-06T22:12:19;30.37;;;20.77;;
66127;SDS011;52925;52.436;-1.952;2024-03-06T22:13:42;30.13;;;21.20;;
66127;SDS011;52925;52.436;-1.952;2024-03-06T22:15:02;31.70;;;20.30;;
66127;SDS011;52925;52.436;-1.952;2024-03-06T22:16:24;30.67;;;21.07;;
66127;SDS011;52925;52.436;-1.952;2024-03-06T22:17:44;29.87;;;20.23;;
66127;SDS011;52925;52.436;-1.952;2024-03-06T22:19:05;32.03;;;21.70;;
66127;SDS011;52925;52.436;-1.952;2024-03-06T22:20:26;32.63;;;20.92;;
66127;SDS011;52925;52.436;-1.952;2024-03-06T22:21:48;30.93;;;21.27;;
66127;SDS011;52925;52.436;-1.952;2024-03-06T22:23:07;29.23;;;20.20;;
66127;SDS011;52925;52.436;-1.952;2024-03-06T22:24:28;31.67;;;21.20;;
66127;SDS011;52925;52.436;-1.952;2024-03-06T22:25:48;29.30;;;21.23;;
66127;SDS011;52925;52.436;-1.952;2024-03-06T22:27:09;29.33;;;20.90;;
66127;SDS011;52925;52.436;-1.952;2024-03-06T22:28:29;33.03;;;23.17;;
66127;SDS011;52925;52.436;-1.952;2024-03-06T22:29:50;32.10;;;22.80;;
66127;SDS011;52925;52.436;-1.952;2024-03-06T22:31:10;35.03;;;22.63;;
66127;SDS011;52925;52.436;-1.952;2024-03-06T22:32:31;31.90;;;21.23;;